createdAt,value
2023-05-03T00:01:50.192Z,8.14
2023-05-03T00:05:17.830Z,8.09
2023-05-03T00:08:45.605Z,8.04
2023-05-03T00:12:12.665Z,8.01
2023-05-03T00:15:39.427Z,8.00
2023-05-03T00:19:07.789Z,7.98
2023-05-03T00:22:37.945Z,7.94
2023-05-03T00:26:04.831Z,7.89
2023-05-03T00:29:31.715Z,7.83
2023-05-03T00:32:59.011Z,7.77
2023-05-03T00:36:28.171Z,7.71
2023-05-03T00:39:55.445Z,7.64
2023-05-03T00:43:22.406Z,7.54
2023-05-03T00:46:49.687Z,7.46
2023-05-03T00:50:17.120Z,7.37
2023-05-03T00:53:44.212Z,7.27
2023-05-03T00:57:11.978Z,7.16
2023-05-03T01:00:38.988Z,7.05
2023-05-03T01:04:07.585Z,6.95
2023-05-03T01:07:43.752Z,6.86
2023-05-03T01:11:21.329Z,6.78
2023-05-03T01:15:00.854Z,6.69
2023-05-03T01:18:35.547Z,6.61
2023-05-03T01:22:23.583Z,6.52
2023-05-03T01:25:51.975Z,6.43
2023-05-03T01:29:19.313Z,6.33
2023-05-03T01:32:57.865Z,6.23
2023-05-03T01:36:32.581Z,6.14
2023-05-03T01:40:04.064Z,6.05
2023-05-03T01:43:32.890Z,5.99
2023-05-03T01:47:00.138Z,5.93
2023-05-03T01:50:26.930Z,5.91
2023-05-03T01:53:54.005Z,5.88
2023-05-03T01:57:20.912Z,5.85
2023-05-03T02:00:49.379Z,5.82
2023-05-03T02:04:16.461Z,5.79
2023-05-03T02:07:43.356Z,5.77
2023-05-03T02:11:10.425Z,5.74
2023-05-03T02:14:37.705Z,5.71
2023-05-03T02:18:05.519Z,5.69
2023-05-03T02:21:32.719Z,5.66
2023-05-03T02:25:00.047Z,5.63
2023-05-03T02:28:27.100Z,5.60
2023-05-03T02:31:54.124Z,5.57
2023-05-03T02:35:21.309Z,5.55
2023-05-03T02:38:48.761Z,5.54
2023-05-03T02:42:16.241Z,5.52
2023-05-03T02:45:45.610Z,5.51
2023-05-03T02:49:13.476Z,5.51
2023-05-03T02:52:40.491Z,5.50
2023-05-03T02:56:09.817Z,5.49
2023-05-03T02:59:36.893Z,5.48
2023-05-03T03:03:04.342Z,5.48
2023-05-03T03:06:31.485Z,5.49
2023-05-03T03:09:59.046Z,5.49
2023-05-03T03:13:26.242Z,5.49
2023-05-03T03:16:54.118Z,5.51
2023-05-03T03:20:21.212Z,5.51
2023-05-03T03:23:48.389Z,5.55
2023-05-03T03:27:15.629Z,5.58
2023-05-03T03:30:42.578Z,5.63
2023-05-03T03:34:16.428Z,5.67
2023-05-03T03:37:43.430Z,5.73
2023-05-03T03:41:10.862Z,5.79
2023-05-03T03:44:38.393Z,5.83
2023-05-03T03:48:06.285Z,5.86
2023-05-03T03:51:33.414Z,5.91
2023-05-03T03:55:01.164Z,5.98
2023-05-03T03:58:28.450Z,6.05
2023-05-03T04:01:55.883Z,6.13
2023-05-03T04:05:23.880Z,6.21
2023-05-03T04:08:51.147Z,6.29
2023-05-03T04:12:18.958Z,6.37
2023-05-03T04:15:46.724Z,6.44
2023-05-03T04:19:14.612Z,6.49
2023-05-03T04:22:42.316Z,6.55
2023-05-03T04:26:23.519Z,6.62
2023-05-03T04:29:59.936Z,6.68
2023-05-03T04:33:30.004Z,6.75
2023-05-03T04:37:01.630Z,6.83
2023-05-03T04:40:28.617Z,6.94
2023-05-03T04:44:01.597Z,7.04
2023-05-03T04:47:28.664Z,7.14
2023-05-03T04:50:55.878Z,7.26
2023-05-03T04:54:23.761Z,7.37
2023-05-03T04:57:50.800Z,7.46
2023-05-03T05:01:18.215Z,7.54
2023-05-03T05:04:46.493Z,7.67
2023-05-03T05:08:13.907Z,7.79
2023-05-03T05:11:49.150Z,7.91
2023-05-03T05:15:16.703Z,8.01
2023-05-03T05:18:44.623Z,8.09
2023-05-03T05:22:11.937Z,8.19
2023-05-03T05:25:43.867Z,8.31
2023-05-03T05:29:11.035Z,8.42
2023-05-03T05:32:38.095Z,8.54
2023-05-03T05:36:08.529Z,8.68
2023-05-03T05:39:35.815Z,8.87
2023-05-03T05:43:03.299Z,9.09
2023-05-03T05:46:31.286Z,9.32
2023-05-03T05:49:59.419Z,9.58
2023-05-03T05:53:27.429Z,9.85
2023-05-03T05:56:58.698Z,10.15
2023-05-03T06:00:27.106Z,10.46
2023-05-03T06:03:55.601Z,10.77
2023-05-03T06:07:25.093Z,11.12
2023-05-03T06:10:53.286Z,11.46
2023-05-03T06:14:20.947Z,11.71
2023-05-03T06:17:48.547Z,11.92
2023-05-03T06:21:15.805Z,12.14
2023-05-03T06:24:42.602Z,12.33
2023-05-03T06:28:09.412Z,12.35
2023-05-03T06:31:37.033Z,12.44
2023-05-03T06:35:05.585Z,13.05
2023-05-03T06:38:33.196Z,13.55
2023-05-03T06:42:00.218Z,13.99
2023-05-03T06:45:34.465Z,14.59
2023-05-03T06:49:01.966Z,15.24
2023-05-03T06:52:29.250Z,15.97
2023-05-03T06:55:56.148Z,16.71
2023-05-03T06:59:23.192Z,17.39
2023-05-03T07:02:50.385Z,18.06
2023-05-03T07:06:18.476Z,18.63
2023-05-03T07:09:45.386Z,19.00
2023-05-03T07:13:12.403Z,19.39
2023-05-03T07:16:39.622Z,19.53
2023-05-03T07:20:08.424Z,19.49
2023-05-03T07:23:35.283Z,18.92
2023-05-03T07:27:02.300Z,17.89
2023-05-03T07:30:29.574Z,17.45
2023-05-03T07:33:57.125Z,16.95
2023-05-03T07:37:28.172Z,16.77
2023-05-03T07:40:56.300Z,16.64
2023-05-03T07:44:25.355Z,16.75
2023-05-03T07:47:54.188Z,16.75
2023-05-03T07:51:22.132Z,16.54
2023-05-03T07:54:49.608Z,16.26
2023-05-03T07:58:21.218Z,16.11
2023-05-03T08:01:54.087Z,16.04
2023-05-03T08:05:23.484Z,16.14
2023-05-03T08:08:51.702Z,16.23
2023-05-03T08:12:19.204Z,16.23
2023-05-03T08:15:50.776Z,16.31
2023-05-03T08:19:18.653Z,16.26
2023-05-03T08:22:48.042Z,16.27
2023-05-03T08:26:16.476Z,16.14
2023-05-03T08:29:44.901Z,16.04
2023-05-03T08:33:12.259Z,16.14
2023-05-03T08:36:41.037Z,16.30
2023-05-03T08:40:14.734Z,16.52
2023-05-03T08:43:53.442Z,16.65
2023-05-03T08:47:22.202Z,16.60
2023-05-03T08:50:51.752Z,16.61
2023-05-03T08:54:20.797Z,16.66
2023-05-03T08:57:50.163Z,16.74
2023-05-03T09:01:17.669Z,16.97
2023-05-03T09:04:47.538Z,17.29
2023-05-03T09:08:14.958Z,17.50
2023-05-03T09:11:43.077Z,17.62
2023-05-03T09:15:22.756Z,17.59
2023-05-03T09:19:01.275Z,17.28
2023-05-03T09:22:32.840Z,17.07
2023-05-03T09:26:01.322Z,16.95
2023-05-03T09:29:34.206Z,16.90
2023-05-03T09:33:01.292Z,17.07
2023-05-03T09:36:30.280Z,17.30
2023-05-03T09:40:10.525Z,17.49
2023-05-03T09:43:50.684Z,17.60
2023-05-03T09:47:19.854Z,17.74
2023-05-03T09:50:47.068Z,17.79
2023-05-03T09:54:17.042Z,17.51
2023-05-03T09:57:48.110Z,16.93
2023-05-03T10:01:18.009Z,16.41
2023-05-03T10:04:53.294Z,16.02
2023-05-03T10:08:27.983Z,16.22
2023-05-03T10:11:58.955Z,16.56
2023-05-03T10:15:28.708Z,16.93
2023-05-03T10:19:01.569Z,17.04
2023-05-03T10:22:28.737Z,16.68
2023-05-03T10:26:17.537Z,16.44
2023-05-03T10:29:58.134Z,16.58
2023-05-03T10:33:36.228Z,16.36
2023-05-03T10:37:09.739Z,16.12
2023-05-03T10:40:46.434Z,16.16
2023-05-03T10:44:28.353Z,16.07
2023-05-03T10:48:23.711Z,16.21
2023-05-03T10:51:52.013Z,16.19
2023-05-03T10:55:25.168Z,16.53
2023-05-03T10:58:56.423Z,16.95
2023-05-03T11:02:33.463Z,16.84
2023-05-03T11:06:00.578Z,16.93
2023-05-03T11:09:35.171Z,16.93
2023-05-03T11:13:02.233Z,16.50
2023-05-03T11:16:29.737Z,16.21
2023-05-03T11:19:56.607Z,16.09
2023-05-03T11:23:28.967Z,16.11
2023-05-03T11:26:55.981Z,16.20
2023-05-03T11:30:22.971Z,16.27
2023-05-03T11:33:50.364Z,16.53
2023-05-03T11:37:18.943Z,16.93
2023-05-03T11:40:46.218Z,17.27
2023-05-03T11:44:17.492Z,17.59
2023-05-03T11:47:45.078Z,18.10
2023-05-03T11:51:14.033Z,18.15
2023-05-03T11:54:41.445Z,17.97
2023-05-03T11:58:13.698Z,18.00
2023-05-03T12:01:40.779Z,17.45
2023-05-03T12:05:10.366Z,17.00
2023-05-03T12:08:41.164Z,17.03
2023-05-03T12:12:11.244Z,17.35
2023-05-03T12:15:43.799Z,17.55
2023-05-03T12:19:09.398Z,17.70
2023-05-03T12:22:37.197Z,17.95
2023-05-03T12:26:05.431Z,17.66
2023-05-03T12:29:35.192Z,17.37
2023-05-03T12:33:04.874Z,17.26
2023-05-03T12:36:36.896Z,17.23
2023-05-03T12:43:38.483Z,17.01
2023-05-03T12:47:09.557Z,17.32
2023-05-03T12:50:38.548Z,17.61
2023-05-03T12:54:10.215Z,17.41
2023-05-03T12:57:38.170Z,17.09
2023-05-03T13:01:37.233Z,16.83
2023-05-03T13:04:58.798Z,16.45
2023-05-03T13:08:33.835Z,16.30
2023-05-03T13:12:02.425Z,16.45
2023-05-03T13:15:29.861Z,16.78
2023-05-03T13:18:56.868Z,17.04
2023-05-03T13:22:24.124Z,17.31
2023-05-03T13:25:54.240Z,17.35
2023-05-03T13:29:22.212Z,17.08
2023-05-03T13:32:49.365Z,16.53
2023-05-03T13:36:16.749Z,16.15
2023-05-03T13:39:43.699Z,15.85
2023-05-03T13:43:11.388Z,15.68
2023-05-03T13:46:40.816Z,15.54
2023-05-03T13:50:10.012Z,15.66
2023-05-03T13:53:36.862Z,16.05
2023-05-03T13:57:04.164Z,16.39
2023-05-03T14:00:32.369Z,16.53
2023-05-03T14:03:59.890Z,16.58
2023-05-03T14:07:26.824Z,16.61
2023-05-03T14:10:54.221Z,16.79
2023-05-03T14:14:21.190Z,16.82
2023-05-03T14:17:50.946Z,16.88
2023-05-03T14:21:18.675Z,17.02
2023-05-03T14:24:45.719Z,17.21
2023-05-03T14:28:12.600Z,17.38
2023-05-03T14:31:39.703Z,17.49
2023-05-03T14:35:07.593Z,17.61
2023-05-03T14:38:34.699Z,17.75
2023-05-03T14:42:03.284Z,17.87
2023-05-03T14:45:30.361Z,17.93
2023-05-03T14:48:57.323Z,17.94
2023-05-03T14:52:24.833Z,17.99
2023-05-03T14:55:53.813Z,18.07
2023-05-03T14:59:21.100Z,18.08
2023-05-03T15:02:48.692Z,18.12
2023-05-03T15:06:16.773Z,18.14
2023-05-03T15:09:44.878Z,18.15
2023-05-03T15:13:12.043Z,18.14
2023-05-03T15:16:39.378Z,18.11
2023-05-03T15:20:09.838Z,18.14
2023-05-03T15:23:36.889Z,18.18
2023-05-03T15:27:04.704Z,18.01
2023-05-03T15:30:31.748Z,18.00
2023-05-03T15:34:00.028Z,18.07
2023-05-03T15:37:37.557Z,18.03
2023-05-03T15:41:04.813Z,17.89
2023-05-03T15:44:31.997Z,17.79
2023-05-03T15:47:59.011Z,17.87
2023-05-03T15:51:28.009Z,18.00
2023-05-03T15:54:56.238Z,18.19
2023-05-03T15:58:23.114Z,18.23
2023-05-03T16:01:51.193Z,18.20
2023-05-03T16:05:18.918Z,18.16
2023-05-03T16:08:46.037Z,18.01
2023-05-03T16:12:12.823Z,17.68
2023-05-03T16:15:39.828Z,17.41
2023-05-03T16:19:08.803Z,17.16
2023-05-03T16:22:37.194Z,16.85
2023-05-03T16:26:14.694Z,16.52
2023-05-03T16:29:41.727Z,16.15
2023-05-03T16:33:08.762Z,15.75
2023-05-03T16:36:42.463Z,15.32
2023-05-03T16:40:11.693Z,15.03
2023-05-03T16:43:39.620Z,14.87
2023-05-03T16:47:07.318Z,14.70
2023-05-03T16:50:34.462Z,14.48
2023-05-03T16:54:04.313Z,14.30
2023-05-03T16:57:32.830Z,14.14
2023-05-03T17:01:00.270Z,14.01
2023-05-03T17:04:28.289Z,13.89
2023-05-03T17:07:55.382Z,13.78
2023-05-03T17:11:23.738Z,13.72
2023-05-03T17:14:51.819Z,13.68
2023-05-03T17:18:19.388Z,13.69
2023-05-03T17:21:47.905Z,13.70
2023-05-03T17:25:15.501Z,13.71
2023-05-03T17:28:44.593Z,13.70
2023-05-03T17:32:11.601Z,13.67
2023-05-03T17:35:38.597Z,13.61
2023-05-03T17:39:06.235Z,13.54
2023-05-03T17:42:34.198Z,13.48
2023-05-03T17:46:11.025Z,13.41
2023-05-03T17:49:39.287Z,13.34
2023-05-03T17:53:07.180Z,13.26
2023-05-03T17:56:34.366Z,13.17
2023-05-03T18:00:02.890Z,13.07
2023-05-03T18:03:34.071Z,12.98
2023-05-03T18:07:01.553Z,12.88
2023-05-03T18:10:29.501Z,12.77
2023-05-03T18:13:57.552Z,12.67
2023-05-03T18:17:26.419Z,12.58
2023-05-03T18:21:01.654Z,12.46
2023-05-03T18:24:29.609Z,12.35
2023-05-03T18:27:58.204Z,12.24
2023-05-03T18:31:25.822Z,12.14
2023-05-03T18:34:53.218Z,12.02
2023-05-03T18:38:21.930Z,11.91
2023-05-03T18:41:50.135Z,11.78
2023-05-03T18:45:19.583Z,11.67
2023-05-03T18:48:47.667Z,11.54
2023-05-03T18:52:14.975Z,11.41
2023-05-03T18:55:43.075Z,11.31
2023-05-03T18:59:11.199Z,11.20
2023-05-03T19:02:38.272Z,11.09
2023-05-03T19:06:07.515Z,10.96
2023-05-03T19:09:40.317Z,10.75
2023-05-03T19:13:07.876Z,10.55
2023-05-03T19:16:40.893Z,10.39
2023-05-03T19:20:12.041Z,10.24
2023-05-03T19:23:39.921Z,10.13
2023-05-03T19:27:07.336Z,10.02
2023-05-03T19:30:34.577Z,9.92
2023-05-03T19:34:01.443Z,9.82
2023-05-03T19:37:28.147Z,9.73
2023-05-03T19:41:05.978Z,9.66
2023-05-03T19:44:33.516Z,9.59
2023-05-03T19:48:00.598Z,9.53
2023-05-03T19:51:27.984Z,9.49
2023-05-03T19:54:56.362Z,9.46
2023-05-03T19:58:23.331Z,9.43
2023-05-03T20:01:50.481Z,9.38
2023-05-03T20:05:17.837Z,9.33
2023-05-03T20:08:44.785Z,9.28
2023-05-03T20:12:13.370Z,9.21
2023-05-03T20:15:40.221Z,9.14
2023-05-03T20:19:07.079Z,9.07
2023-05-03T20:22:33.822Z,8.97
2023-05-03T20:26:01.480Z,8.89
2023-05-03T20:29:28.418Z,8.80
2023-05-03T20:32:55.368Z,8.72
2023-05-03T20:36:22.644Z,8.64
2023-05-03T20:39:49.558Z,8.54
2023-05-03T20:43:17.471Z,8.45
2023-05-03T20:46:45.518Z,8.37
2023-05-03T20:50:13.299Z,8.27
2023-05-03T20:53:40.625Z,8.17
2023-05-03T20:57:08.714Z,8.02
2023-05-03T21:00:35.729Z,7.87
2023-05-03T21:04:04.103Z,7.73
2023-05-03T21:07:31.278Z,7.60
2023-05-03T21:10:58.330Z,7.50
2023-05-03T21:14:25.286Z,7.40
2023-05-03T21:17:52.270Z,7.27
2023-05-03T21:21:19.471Z,7.18
2023-05-03T21:24:46.867Z,7.10
2023-05-03T21:28:13.986Z,7.05
2023-05-03T21:31:40.909Z,6.99
2023-05-03T21:35:10.309Z,6.94
2023-05-03T21:38:37.347Z,6.87
2023-05-03T21:42:07.685Z,6.83
2023-05-03T21:45:34.550Z,6.77
2023-05-03T21:49:01.408Z,6.71
2023-05-03T21:52:28.239Z,6.63
2023-05-03T21:55:57.948Z,6.55
2023-05-03T21:59:24.752Z,6.50
2023-05-03T22:02:51.979Z,6.47
2023-05-03T22:06:19.180Z,6.43
2023-05-03T22:09:48.841Z,6.39
2023-05-03T22:13:16.041Z,6.36
2023-05-03T22:16:43.355Z,6.33
2023-05-03T22:20:12.471Z,6.31
2023-05-03T22:23:39.513Z,6.30
2023-05-03T22:27:06.594Z,6.29
2023-05-03T22:30:33.559Z,6.27
2023-05-03T22:34:00.727Z,6.24
2023-05-03T22:37:27.870Z,6.21
2023-05-03T22:40:54.620Z,6.17
2023-05-03T22:44:21.648Z,6.11
2023-05-03T22:47:48.744Z,6.05
2023-05-03T22:51:15.729Z,6.00
2023-05-03T22:54:42.742Z,5.93
2023-05-03T22:58:09.622Z,5.91
2023-05-03T23:01:37.704Z,5.91
2023-05-03T23:05:04.854Z,5.90
2023-05-03T23:08:32.168Z,5.88
2023-05-03T23:12:00.563Z,5.85
2023-05-03T23:15:29.428Z,5.82
2023-05-03T23:18:56.397Z,5.79
2023-05-03T23:22:23.478Z,5.76
2023-05-03T23:25:50.615Z,5.73
2023-05-03T23:29:18.097Z,5.69
2023-05-03T23:32:46.536Z,5.65
2023-05-03T23:36:14.251Z,5.60
2023-05-03T23:39:45.823Z,5.55
2023-05-03T23:43:12.652Z,5.51
2023-05-03T23:46:39.896Z,5.46
2023-05-03T23:50:08.810Z,5.41
2023-05-03T23:53:35.867Z,5.36
2023-05-03T23:57:02.829Z,5.30
